Clarksdale, MS

9:53 PM CDT on July 13, 2014 (GMT -0500)
Fletcher (KCKM) Elev 174 ft | 34.30 °N, 90.51 °W | Change Station

Current weather conditions updated 18 minutes ago

Clear
Clear
81 °F
Feels Like 86 °F
N
0
Wind Variable Wind from North

Tomorrow is forecast to be Warmer than today. Thunderstorms tomorrow night.

Today
High -- | Low -- °F
--% Chance of Precip.
Yesterday
High -- | Low -- °F
Precip. -- in
6:00 AM 8:15 PM
Waning Gibbous, 96% visible
Pressure 30.01 in
Visibility 10.0 miles
Clouds Clear
Heat Index 86 °F
Dew Point 75 °F
Humidity 84%
Rainfall 0.00 in
Snow Depth Not available.
UV 0 out of 12
Pollen 3.50 out of 12
Air Quality Not available.
Flu Activity No Activity
METAR KCKM 140235Z AUTO 00000KT 10SM CLR 27/24 A3001 RMK AO1

More Conditions Fewer Conditions

Pressure 30.01 in
Visibility 10.0 miles
Clouds Clear
Heat Index 86 °F
Dew Point 75 °F
Humidity 84%
Rainfall 0.00 in
Snow Depth Not available.
UV 0 out of 12
Pollen 3.50 out of 12
Air Quality Not available.
Flu Activity No Activity
METAR KCKM 140235Z AUTO 00000KT 10SM CLR 27/24 A3001 RMK AO1

More Conditions Fewer Conditions

10-Day Weather Forecast

Almanac

Astronomy

Jul. 13, 2014 Rise Set
Actual Time 6:00 AM CDT 8:15 PM CDT
Civil Twilight 5:31 AM CDT 8:44 PM CDT
Nautical Twilight 4:56 AM CDT 9:19 PM CDT
Astronomical Twilight 4:18 AM CDT 9:57 PM CDT
Moon 9:11 PM CDT (7/13) 7:25 AM CDT (7/13)
Length of Visible Light 15h 12m
Length of Day
14h 15m
Tomorrow will be 1m 0s shorter.
Waning Gibbous, 96% of the Moon is Illuminated
Today
Waning Gibbous
Jul 18
Last Quarter
Jul 26
New
Aug 3
First Quarter
Aug 10
Full

Today's Extremes

State Highs State Lows

Community

WunderPhotos

Upload Photos

1,733,536 photos uploaded!

Nearby

Snow Depth

Station Depth Elevation
No new snow has been reported.

Earthquake Activity

City Distance Mag. Time & Date
No recent earthquake activity has been reported nearby.
Minimum magnitude displayed is 2.5.

Coastal Water Temperatures

Place Temperature
No Stations Reporting

Nearby Weather Stations

Station Location Temp. Heat Index Dew Point Humidity Wind Precip. Elev Updated Type
Clarksdale, Clarksdale, MS 79.8 °F 85 °F 75 °F 86% South  at  0.0 mph 0.00 in / hr 164 ft 9:53 PM CDT Rapid Fire

Show More Stations Show Fewer Stations